TAF and METAR

METAR for Gurayat Domestic Airport

OEGT 030200Z 18004KT CAVOK 16/07 Q1011 NOSIG
Report created 3. jun 04:00
wind 4 knots from S (180°) Clear sky Temperature 16° with dewpoint at 7° (Humidity 55.15%) Pressure 1011 hPa no significant weather change expected the next couple of hours

TAF for Gurayat Domestic Airport

TAF OEGT 022300Z 0300/0406 VRB03KT CAVOK BECMG 0309/0311 29012G24KT TEMPO 0309/0315 4000 BLDU
Report created 3. jun 01:00

between 3. jun 02:00 - 4. jun 08:00

wind 3 knots from various directions Clear sky

becoming between 3. jun 11:00 - 3. jun 13:00

wind 12 knots from WNW (290°) with gusts up to 24 knots

temporarily between 3. jun 11:00 - 3. jun 17:00

visibility 4000 meters blowing widespread dust
Gurayat Domestic Airport in Saudi Arabia at 499m

Latest 5 airports